sensor_id;sensor_type;location;lat;lon;timestamp;temperature;humidity
8662;DHT22;29684;47.722;9.388;2022-10-31T00:02:14;8.80;99.90
8662;DHT22;29684;47.722;9.388;2022-10-31T00:04:58;8.80;99.90
8662;DHT22;29684;47.722;9.388;2022-10-31T00:07:43;8.80;99.90
8662;DHT22;29684;47.722;9.388;2022-10-31T00:10:27;8.70;99.90
8662;DHT22;29684;47.722;9.388;2022-10-31T00:13:12;8.70;99.90
8662;DHT22;29684;47.722;9.388;2022-10-31T00:15:57;8.70;99.90
8662;DHT22;29684;47.722;9.388;2022-10-31T00:18:41;8.70;99.90
8662;DHT22;29684;47.722;9.388;2022-10-31T00:21:25;8.70;99.90
8662;DHT22;29684;47.722;9.388;2022-10-31T00:24:10;8.90;99.90
8662;DHT22;29684;47.722;9.388;2022-10-31T00:26:54;9.00;99.90
8662;DHT22;29684;47.722;9.388;2022-10-31T00:29:39;9.30;99.90
8662;DHT22;29684;47.722;9.388;2022-10-31T00:32:23;9.30;99.90
8662;DHT22;29684;47.722;9.388;2022-10-31T00:35:07;9.30;99.90
8662;DHT22;29684;47.722;9.388;2022-10-31T00:37:52;9.30;99.90
8662;DHT22;29684;47.722;9.388;2022-10-31T00:40:36;9.30;99.90
8662;DHT22;29684;47.722;9.388;2022-10-31T00:43:20;9.20;99.90
8662;DHT22;29684;47.722;9.388;2022-10-31T00:46:05;9.10;99.90
8662;DHT22;29684;47.722;9.388;2022-10-31T00:48:49;9.10;99.90
8662;DHT22;29684;47.722;9.388;2022-10-31T00:51:33;9.20;99.90
8662;DHT22;29684;47.722;9.388;2022-10-31T00:54:17;9.20;99.90
8662;DHT22;29684;47.722;9.388;2022-10-31T00:57:02;9.30;99.90
8662;DHT22;29684;47.722;9.388;2022-10-31T00:59:46;9.20;99.90
8662;DHT22;29684;47.722;9.388;2022-10-31T01:02:30;9.10;99.90
8662;DHT22;29684;47.722;9.388;2022-10-31T01:05:14;9.20;99.90
8662;DHT22;29684;47.722;9.388;2022-10-31T01:07:59;9.10;99.90
8662;DHT22;29684;47.722;9.388;2022-10-31T01:10:43;9.10;99.90
8662;DHT22;29684;47.722;9.388;2022-10-31T01:13:27;9.00;99.90
8662;DHT22;29684;47.722;9.388;2022-10-31T01:16:14;9.10;99.90
8662;DHT22;29684;47.722;9.388;2022-10-31T01:18:58;9.30;99.90
8662;DHT22;29684;47.722;9.388;2022-10-31T01:21:42;9.40;99.90
8662;DHT22;29684;47.722;9.388;2022-10-31T01:24:26;9.30;99.90
8662;DHT22;29684;47.722;9.388;2022-10-31T01:27:11;9.40;99.90
8662;DHT22;29684;47.722;9.388;2022-10-31T01:29:55;9.30;99.90
8662;DHT22;29684;47.722;9.388;2022-10-31T01:32:39;9.40;99.90
8662;DHT22;29684;47.722;9.388;2022-10-31T01:35:23;9.30;99.90
8662;DHT22;29684;47.722;9.388;2022-10-31T01:38:07;9.40;99.90
8662;DHT22;29684;47.722;9.388;2022-10-31T01:40:52;9.60;99.90
8662;DHT22;29684;47.722;9.388;2022-10-31T01:46:34;9.50;99.90
8662;DHT22;29684;47.722;9.388;2022-10-31T01:49:28;9.80;99.90
8662;DHT22;29684;47.722;9.388;2022-10-31T01:57:53;9.50;99.90
8662;DHT22;29684;47.722;9.388;2022-10-31T02:00:39;9.50;99.90
8662;DHT22;29684;47.722;9.388;2022-10-31T02:03:25;9.60;99.90
8662;DHT22;29684;47.722;9.388;2022-10-31T02:06:18;9.60;99.90
8662;DHT22;29684;47.722;9.388;2022-10-31T02:09:05;9.70;99.90
8662;DHT22;29684;47.722;9.388;2022-10-31T02:11:52;9.90;99.90
8662;DHT22;29684;47.722;9.388;2022-10-31T02:14:37;9.60;99.90
8662;DHT22;29684;47.722;9.388;2022-10-31T02:17:22;9.40;99.90
8662;DHT22;29684;47.722;9.388;2022-10-31T02:20:17;9.40;99.90
8662;DHT22;29684;47.722;9.388;2022-10-31T02:26:20;9.70;99.90
8662;DHT22;29684;47.722;9.388;2022-10-31T02:35:17;9.60;99.90
8662;DHT22;29684;47.722;9.388;2022-10-31T02:41:20;9.80;99.90
8662;DHT22;29684;47.722;9.388;2022-10-31T02:44:30;9.80;99.90
8662;DHT22;29684;47.722;9.388;2022-10-31T02:47:23;9.90;99.90
8662;DHT22;29684;47.722;9.388;2022-10-31T02:50:21;9.80;99.90
8662;DHT22;29684;47.722;9.388;2022-10-31T02:53:07;9.90;99.90
8662;DHT22;29684;47.722;9.388;2022-10-31T02:56:21;10.20;99.90
8662;DHT22;29684;47.722;9.388;2022-10-31T02:59:05;9.90;99.90
8662;DHT22;29684;47.722;9.388;2022-10-31T03:05:09;9.80;99.90
8662;DHT22;29684;47.722;9.388;2022-10-31T03:10:55;9.70;99.90
8662;DHT22;29684;47.722;9.388;2022-10-31T03:13:48;9.50;99.90
8662;DHT22;29684;47.722;9.388;2022-10-31T03:16:50;9.50;99.90
8662;DHT22;29684;47.722;9.388;2022-10-31T03:19:41;9.50;99.90
8662;DHT22;29684;47.722;9.388;2022-10-31T03:22:29;9.80;99.90
8662;DHT22;29684;47.722;9.388;2022-10-31T03:25:16;9.40;99.90
8662;DHT22;29684;47.722;9.388;2022-10-31T03:28:03;9.40;99.90
8662;DHT22;29684;47.722;9.388;2022-10-31T03:30:49;9.50;99.90
8662;DHT22;29684;47.722;9.388;2022-10-31T03:33:36;9.30;99.90
8662;DHT22;29684;47.722;9.388;2022-10-31T03:36:22;9.30;99.90
8662;DHT22;29684;47.722;9.388;2022-10-31T03:39:09;9.30;99.90
8662;DHT22;29684;47.722;9.388;2022-10-31T03:42:12;9.30;99.90
8662;DHT22;29684;47.722;9.388;2022-10-31T03:45:21;9.40;99.90
8662;DHT22;29684;47.722;9.388;2022-10-31T03:48:07;9.50;99.90
8662;DHT22;29684;47.722;9.388;2022-10-31T03:54:01;9.50;99.90
8662;DHT22;29684;47.722;9.388;2022-10-31T03:56:54;9.50;99.90
8662;DHT22;29684;47.722;9.388;2022-10-31T04:00:03;9.50;99.90
8662;DHT22;29684;47.722;9.388;2022-10-31T04:05:36;9.60;99.90
8662;DHT22;29684;47.722;9.388;2022-10-31T04:08:26;9.60;99.90
8662;DHT22;29684;47.722;9.388;2022-10-31T04:11:13;9.80;99.90
8662;DHT22;29684;47.722;9.388;2022-10-31T04:14:00;9.50;99.90
8662;DHT22;29684;47.722;9.388;2022-10-31T04:16:46;9.60;99.90
8662;DHT22;29684;47.722;9.388;2022-10-31T04:19:31;9.70;99.90
8662;DHT22;29684;47.722;9.388;2022-10-31T04:22:16;9.70;99.90
8662;DHT22;29684;47.722;9.388;2022-10-31T04:25:00;9.70;99.90
8662;DHT22;29684;47.722;9.388;2022-10-31T04:27:44;9.70;99.90
8662;DHT22;29684;47.722;9.388;2022-10-31T04:30:28;9.70;99.90
8662;DHT22;29684;47.722;9.388;2022-10-31T04:33:12;9.40;99.90
8662;DHT22;29684;47.722;9.388;2022-10-31T04:35:56;9.20;99.90
8662;DHT22;29684;47.722;9.388;2022-10-31T04:38:40;9.20;99.90
8662;DHT22;29684;47.722;9.388;2022-10-31T04:41:24;10.30;99.90
8662;DHT22;29684;47.722;9.388;2022-10-31T04:44:08;9.30;99.90
8662;DHT22;29684;47.722;9.388;2022-10-31T04:46:53;9.00;99.90
8662;DHT22;29684;47.722;9.388;2022-10-31T04:49:37;9.10;99.90
8662;DHT22;29684;47.722;9.388;2022-10-31T04:52:21;9.00;99.90
8662;DHT22;29684;47.722;9.388;2022-10-31T04:55:05;9.40;99.90
8662;DHT22;29684;47.722;9.388;2022-10-31T04:57:49;9.40;99.90
8662;DHT22;29684;47.722;9.388;2022-10-31T05:00:35;9.40;99.90
8662;DHT22;29684;47.722;9.388;2022-10-31T05:03:19;9.20;99.90
8662;DHT22;29684;47.722;9.388;2022-10-31T05:06:03;9.70;99.90
8662;DHT22;29684;47.722;9.388;2022-10-31T05:08:48;9.40;99.90
8662;DHT22;29684;47.722;9.388;2022-10-31T05:11:32;9.50;99.90
8662;DHT22;29684;47.722;9.388;2022-10-31T05:14:16;9.50;99.90
8662;DHT22;29684;47.722;9.388;2022-10-31T05:17:00;9.30;99.90
8662;DHT22;29684;47.722;9.388;2022-10-31T05:19:44;9.20;99.90
8662;DHT22;29684;47.722;9.388;2022-10-31T05:22:28;9.40;99.90
8662;DHT22;29684;47.722;9.388;2022-10-31T05:25:13;9.40;99.90
8662;DHT22;29684;47.722;9.388;2022-10-31T05:27:57;9.30;99.90
8662;DHT22;29684;47.722;9.388;2022-10-31T05:30:41;9.20;99.90
8662;DHT22;29684;47.722;9.388;2022-10-31T05:33:25;9.20;99.90
8662;DHT22;29684;47.722;9.388;2022-10-31T05:36:09;9.50;99.90
8662;DHT22;29684;47.722;9.388;2022-10-31T05:38:53;8.90;99.90
8662;DHT22;29684;47.722;9.388;2022-10-31T05:41:38;8.90;99.90
8662;DHT22;29684;47.722;9.388;2022-10-31T05:44:22;9.00;99.90
8662;DHT22;29684;47.722;9.388;2022-10-31T05:47:06;8.80;99.90
8662;DHT22;29684;47.722;9.388;2022-10-31T05:49:50;9.00;99.90
8662;DHT22;29684;47.722;9.388;2022-10-31T05:52:35;8.80;99.90
8662;DHT22;29684;47.722;9.388;2022-10-31T05:55:19;8.80;99.90
8662;DHT22;29684;47.722;9.388;2022-10-31T05:58:06;8.90;99.90
8662;DHT22;29684;47.722;9.388;2022-10-31T06:00:54;8.80;99.90
8662;DHT22;29684;47.722;9.388;2022-10-31T06:03:38;8.80;99.90
8662;DHT22;29684;47.722;9.388;2022-10-31T06:06:28;8.70;99.90
8662;DHT22;29684;47.722;9.388;2022-10-31T06:09:12;9.10;99.90
8662;DHT22;29684;47.722;9.388;2022-10-31T06:11:56;8.80;99.90
8662;DHT22;29684;47.722;9.388;2022-10-31T06:14:43;9.00;99.90
8662;DHT22;29684;47.722;9.388;2022-10-31T06:17:28;9.00;99.90
8662;DHT22;29684;47.722;9.388;2022-10-31T06:20:12;8.80;99.90
8662;DHT22;29684;47.722;9.388;2022-10-31T06:22:56;8.60;99.90
8662;DHT22;29684;47.722;9.388;2022-10-31T06:25:41;8.60;99.90
8662;DHT22;29684;47.722;9.388;2022-10-31T06:28:25;8.60;99.90
8662;DHT22;29684;47.722;9.388;2022-10-31T06:31:09;8.60;99.90
8662;DHT22;29684;47.722;9.388;2022-10-31T06:33:53;8.60;99.90
8662;DHT22;29684;47.722;9.388;2022-10-31T06:36:37;8.50;99.90
8662;DHT22;29684;47.722;9.388;2022-10-31T06:39:21;8.50;99.90
8662;DHT22;29684;47.722;9.388;2022-10-31T06:42:06;8.50;99.90
8662;DHT22;29684;47.722;9.388;2022-10-31T06:44:50;8.50;99.90
8662;DHT22;29684;47.722;9.388;2022-10-31T06:47:34;8.50;99.90
8662;DHT22;29684;47.722;9.388;2022-10-31T06:50:18;8.50;99.90
8662;DHT22;29684;47.722;9.388;2022-10-31T06:53:03;8.60;99.90
8662;DHT22;29684;47.722;9.388;2022-10-31T06:55:47;8.60;99.90
8662;DHT22;29684;47.722;9.388;2022-10-31T06:58:31;8.70;99.90
8662;DHT22;29684;47.722;9.388;2022-10-31T07:01:15;8.80;99.90
8662;DHT22;29684;47.722;9.388;2022-10-31T07:03:59;8.60;99.90
8662;DHT22;29684;47.722;9.388;2022-10-31T07:06:43;8.80;99.90
8662;DHT22;29684;47.722;9.388;2022-10-31T07:09:27;8.90;99.90
8662;DHT22;29684;47.722;9.388;2022-10-31T07:12:11;8.80;99.90
8662;DHT22;29684;47.722;9.388;2022-10-31T07:14:56;9.00;99.90
8662;DHT22;29684;47.722;9.388;2022-10-31T07:17:40;9.20;99.90
8662;DHT22;29684;47.722;9.388;2022-10-31T07:20:24;9.20;99.90
8662;DHT22;29684;47.722;9.388;2022-10-31T07:23:09;9.40;99.90
8662;DHT22;29684;47.722;9.388;2022-10-31T07:25:59;9.20;99.90
8662;DHT22;29684;47.722;9.388;2022-10-31T07:28:45;9.30;99.90
8662;DHT22;29684;47.722;9.388;2022-10-31T07:31:29;9.40;99.90
8662;DHT22;29684;47.722;9.388;2022-10-31T07:34:13;9.50;99.90
8662;DHT22;29684;47.722;9.388;2022-10-31T07:36:57;9.50;99.90
8662;DHT22;29684;47.722;9.388;2022-10-31T07:39:41;9.40;99.90
8662;DHT22;29684;47.722;9.388;2022-10-31T07:42:25;9.60;99.90
8662;DHT22;29684;47.722;9.388;2022-10-31T07:45:11;9.20;99.90
8662;DHT22;29684;47.722;9.388;2022-10-31T07:47:56;9.30;99.90
8662;DHT22;29684;47.722;9.388;2022-10-31T07:50:41;9.30;99.90
8662;DHT22;29684;47.722;9.388;2022-10-31T07:53:25;9.60;99.90
8662;DHT22;29684;47.722;9.388;2022-10-31T07:56:09;9.70;99.90
8662;DHT22;29684;47.722;9.388;2022-10-31T07:58:53;9.70;99.90
8662;DHT22;29684;47.722;9.388;2022-10-31T08:01:37;9.60;99.90
8662;DHT22;29684;47.722;9.388;2022-10-31T08:04:21;9.70;99.90
8662;DHT22;29684;47.722;9.388;2022-10-31T08:07:05;10.00;99.90
8662;DHT22;29684;47.722;9.388;2022-10-31T08:09:49;10.00;99.90
8662;DHT22;29684;47.722;9.388;2022-10-31T08:12:33;9.60;99.90
8662;DHT22;29684;47.722;9.388;2022-10-31T08:15:18;9.40;99.90
8662;DHT22;29684;47.722;9.388;2022-10-31T08:18:02;9.90;99.90
8662;DHT22;29684;47.722;9.388;2022-10-31T08:20:46;9.30;99.90
8662;DHT22;29684;47.722;9.388;2022-10-31T08:23:30;9.30;99.90
8662;DHT22;29684;47.722;9.388;2022-10-31T08:26:14;9.50;99.90
8662;DHT22;29684;47.722;9.388;2022-10-31T08:28:58;9.60;99.90
8662;DHT22;29684;47.722;9.388;2022-10-31T08:31:43;9.70;99.90
8662;DHT22;29684;47.722;9.388;2022-10-31T08:34:30;9.90;99.90
8662;DHT22;29684;47.722;9.388;2022-10-31T08:37:14;9.90;99.90
8662;DHT22;29684;47.722;9.388;2022-10-31T08:40:04;10.10;99.90
8662;DHT22;29684;47.722;9.388;2022-10-31T08:43:00;10.70;99.90
8662;DHT22;29684;47.722;9.388;2022-10-31T08:45:48;10.90;99.90
8662;DHT22;29684;47.722;9.388;2022-10-31T08:48:32;10.90;99.90
8662;DHT22;29684;47.722;9.388;2022-10-31T08:51:16;10.70;99.90
8662;DHT22;29684;47.722;9.388;2022-10-31T08:54:00;10.70;99.90
8662;DHT22;29684;47.722;9.388;2022-10-31T08:56:44;10.40;99.90
8662;DHT22;29684;47.722;9.388;2022-10-31T08:59:28;10.50;99.90
8662;DHT22;29684;47.722;9.388;2022-10-31T09:02:13;10.50;99.90
8662;DHT22;29684;47.722;9.388;2022-10-31T09:04:57;10.40;99.90
8662;DHT22;29684;47.722;9.388;2022-10-31T09:07:41;10.40;99.90
8662;DHT22;29684;47.722;9.388;2022-10-31T09:10:26;10.40;99.90
8662;DHT22;29684;47.722;9.388;2022-10-31T09:13:13;10.50;99.90
8662;DHT22;29684;47.722;9.388;2022-10-31T09:15:58;10.50;99.90
8662;DHT22;29684;47.722;9.388;2022-10-31T09:18:45;10.60;99.90
8662;DHT22;29684;47.722;9.388;2022-10-31T09:21:29;10.50;99.90
8662;DHT22;29684;47.722;9.388;2022-10-31T09:24:13;10.50;99.90
8662;DHT22;29684;47.722;9.388;2022-10-31T09:26:58;10.40;99.90
8662;DHT22;29684;47.722;9.388;2022-10-31T09:29:43;10.60;99.90
8662;DHT22;29684;47.722;9.388;2022-10-31T09:32:31;10.80;99.90
8662;DHT22;29684;47.722;9.388;2022-10-31T09:35:15;11.00;99.90
8662;DHT22;29684;47.722;9.388;2022-10-31T09:38:02;10.80;99.90
8662;DHT22;29684;47.722;9.388;2022-10-31T09:50:48;10.70;99.90
8662;DHT22;29684;47.722;9.388;2022-10-31T09:56:32;11.00;99.90
8662;DHT22;29684;47.722;9.388;2022-10-31T09:59:43;10.90;99.90
8662;DHT22;29684;47.722;9.388;2022-10-31T10:05:20;10.90;99.90
8662;DHT22;29684;47.722;9.388;2022-10-31T10:11:11;10.90;99.90
8662;DHT22;29684;47.722;9.388;2022-10-31T10:22:54;11.60;99.90
8662;DHT22;29684;47.722;9.388;2022-10-31T10:25:43;11.70;99.90
8662;DHT22;29684;47.722;9.388;2022-10-31T10:28:38;11.90;99.90
8662;DHT22;29684;47.722;9.388;2022-10-31T10:31:28;11.80;99.90
8662;DHT22;29684;47.722;9.388;2022-10-31T10:34:34;11.60;99.90
8662;DHT22;29684;47.722;9.388;2022-10-31T10:37:39;11.60;99.90
8662;DHT22;29684;47.722;9.388;2022-10-31T10:40:27;11.60;99.90
8662;DHT22;29684;47.722;9.388;2022-10-31T10:43:35;11.90;99.90
8662;DHT22;29684;47.722;9.388;2022-10-31T10:49:52;11.70;99.90
8662;DHT22;29684;47.722;9.388;2022-10-31T10:59:31;12.00;99.90
8662;DHT22;29684;47.722;9.388;2022-10-31T11:02:18;12.10;99.90
8662;DHT22;29684;47.722;9.388;2022-10-31T11:05:03;12.10;99.90
8662;DHT22;29684;47.722;9.388;2022-10-31T11:07:56;12.10;99.90
8662;DHT22;29684;47.722;9.388;2022-10-31T11:10:41;12.10;99.90
8662;DHT22;29684;47.722;9.388;2022-10-31T11:13:25;12.30;99.90
8662;DHT22;29684;47.722;9.388;2022-10-31T11:16:37;12.30;99.90
8662;DHT22;29684;47.722;9.388;2022-10-31T11:19:25;12.20;99.90
8662;DHT22;29684;47.722;9.388;2022-10-31T11:22:17;12.30;99.90
8662;DHT22;29684;47.722;9.388;2022-10-31T11:25:23;12.10;99.90
8662;DHT22;29684;47.722;9.388;2022-10-31T11:28:10;12.30;99.90
8662;DHT22;29684;47.722;9.388;2022-10-31T11:31:21;12.40;99.90
8662;DHT22;29684;47.722;9.388;2022-10-31T11:34:12;12.30;99.90
8662;DHT22;29684;47.722;9.388;2022-10-31T11:37:09;12.20;99.90
8662;DHT22;29684;47.722;9.388;2022-10-31T11:39:59;12.10;99.90
8662;DHT22;29684;47.722;9.388;2022-10-31T11:42:46;12.20;99.90
8662;DHT22;29684;47.722;9.388;2022-10-31T11:45:34;12.00;99.90
8662;DHT22;29684;47.722;9.388;2022-10-31T11:48:23;12.00;99.90
8662;DHT22;29684;47.722;9.388;2022-10-31T11:51:08;12.10;99.90
8662;DHT22;29684;47.722;9.388;2022-10-31T11:53:55;12.10;99.90
8662;DHT22;29684;47.722;9.388;2022-10-31T11:56:42;11.90;99.90
8662;DHT22;29684;47.722;9.388;2022-10-31T11:59:32;11.90;99.90
8662;DHT22;29684;47.722;9.388;2022-10-31T12:02:18;11.90;99.90
8662;DHT22;29684;47.722;9.388;2022-10-31T12:05:10;11.90;99.90
8662;DHT22;29684;47.722;9.388;2022-10-31T12:08:01;11.80;99.90
8662;DHT22;29684;47.722;9.388;2022-10-31T12:18:00;12.00;99.90
8662;DHT22;29684;47.722;9.388;2022-10-31T12:27:11;12.30;99.90
8662;DHT22;29684;47.722;9.388;2022-10-31T12:30:20;12.30;99.90
8662;DHT22;29684;47.722;9.388;2022-10-31T12:33:23;12.40;99.90
8662;DHT22;29684;47.722;9.388;2022-10-31T12:36:26;12.60;99.90
8662;DHT22;29684;47.722;9.388;2022-10-31T12:54:28;12.50;99.90
8662;DHT22;29684;47.722;9.388;2022-10-31T12:57:31;12.80;99.90
8662;DHT22;29684;47.722;9.388;2022-10-31T13:00:20;13.10;99.90
8662;DHT22;29684;47.722;9.388;2022-10-31T13:06:11;13.50;99.90
8662;DHT22;29684;47.722;9.388;2022-10-31T13:09:02;13.70;99.90
8662;DHT22;29684;47.722;9.388;2022-10-31T13:11:55;14.00;99.90
8662;DHT22;29684;47.722;9.388;2022-10-31T13:14:48;14.50;99.90
8662;DHT22;29684;47.722;9.388;2022-10-31T13:17:43;14.50;99.90
8662;DHT22;29684;47.722;9.388;2022-10-31T13:20:43;14.90;99.90
8662;DHT22;29684;47.722;9.388;2022-10-31T13:23:34;15.20;99.90
8662;DHT22;29684;47.722;9.388;2022-10-31T13:26:44;15.90;99.90
8662;DHT22;29684;47.722;9.388;2022-10-31T13:29:39;17.00;99.90
8662;DHT22;29684;47.722;9.388;2022-10-31T13:38:30;18.70;99.90
8662;DHT22;29684;47.722;9.388;2022-10-31T13:44:22;19.90;99.90
8662;DHT22;29684;47.722;9.388;2022-10-31T13:47:26;20.10;99.90
8662;DHT22;29684;47.722;9.388;2022-10-31T13:50:24;19.70;99.90
8662;DHT22;29684;47.722;9.388;2022-10-31T13:56:35;21.00;99.90
8662;DHT22;29684;47.722;9.388;2022-10-31T13:59:22;21.60;99.90
8662;DHT22;29684;47.722;9.388;2022-10-31T14:02:15;20.80;99.90
8662;DHT22;29684;47.722;9.388;2022-10-31T14:05:04;21.70;99.90
8662;DHT22;29684;47.722;9.388;2022-10-31T14:07:50;22.10;99.90
8662;DHT22;29684;47.722;9.388;2022-10-31T14:10:37;21.90;99.90
8662;DHT22;29684;47.722;9.388;2022-10-31T14:13:27;21.00;99.90
8662;DHT22;29684;47.722;9.388;2022-10-31T14:16:18;19.90;99.90
8662;DHT22;29684;47.722;9.388;2022-10-31T14:19:06;19.20;99.90
8662;DHT22;29684;47.722;9.388;2022-10-31T14:21:52;18.70;99.90
8662;DHT22;29684;47.722;9.388;2022-10-31T14:24:36;18.00;99.90
8662;DHT22;29684;47.722;9.388;2022-10-31T14:30:14;17.10;99.90
8662;DHT22;29684;47.722;9.388;2022-10-31T14:33:02;16.70;99.90
8662;DHT22;29684;47.722;9.388;2022-10-31T14:38:55;16.30;99.90
8662;DHT22;29684;47.722;9.388;2022-10-31T14:42:05;16.00;99.90
8662;DHT22;29684;47.722;9.388;2022-10-31T14:51:27;15.30;99.90
8662;DHT22;29684;47.722;9.388;2022-10-31T14:54:23;14.90;99.90
8662;DHT22;29684;47.722;9.388;2022-10-31T14:57:29;14.90;99.90
8662;DHT22;29684;47.722;9.388;2022-10-31T15:00:18;14.80;99.90
8662;DHT22;29684;47.722;9.388;2022-10-31T15:03:44;14.70;99.90
8662;DHT22;29684;47.722;9.388;2022-10-31T15:06:35;14.70;99.90
8662;DHT22;29684;47.722;9.388;2022-10-31T15:09:24;14.60;99.90
8662;DHT22;29684;47.722;9.388;2022-10-31T15:12:28;14.50;99.90
8662;DHT22;29684;47.722;9.388;2022-10-31T15:15:14;14.40;99.90
8662;DHT22;29684;47.722;9.388;2022-10-31T15:17:59;14.40;99.90
8662;DHT22;29684;47.722;9.388;2022-10-31T15:20:45;14.30;99.90
8662;DHT22;29684;47.722;9.388;2022-10-31T15:23:30;14.70;99.90
8662;DHT22;29684;47.722;9.388;2022-10-31T15:26:21;14.00;99.90
8662;DHT22;29684;47.722;9.388;2022-10-31T15:29:15;13.80;99.90
8662;DHT22;29684;47.722;9.388;2022-10-31T15:32:15;13.50;99.90
8662;DHT22;29684;47.722;9.388;2022-10-31T15:35:00;13.20;99.90
8662;DHT22;29684;47.722;9.388;2022-10-31T15:37:44;13.00;99.90
8662;DHT22;29684;47.722;9.388;2022-10-31T15:40:28;13.20;99.90
8662;DHT22;29684;47.722;9.388;2022-10-31T15:43:16;12.60;99.90
8662;DHT22;29684;47.722;9.388;2022-10-31T15:46:01;12.50;99.90
8662;DHT22;29684;47.722;9.388;2022-10-31T15:48:47;12.40;99.90
8662;DHT22;29684;47.722;9.388;2022-10-31T15:51:33;12.30;99.90
8662;DHT22;29684;47.722;9.388;2022-10-31T15:54:18;12.30;99.90
8662;DHT22;29684;47.722;9.388;2022-10-31T15:57:02;12.20;99.90
8662;DHT22;29684;47.722;9.388;2022-10-31T15:59:48;12.00;99.90
8662;DHT22;29684;47.722;9.388;2022-10-31T16:02:33;11.90;99.90
8662;DHT22;29684;47.722;9.388;2022-10-31T16:05:19;11.70;99.90
8662;DHT22;29684;47.722;9.388;2022-10-31T16:08:03;11.60;99.90
8662;DHT22;29684;47.722;9.388;2022-10-31T16:10:48;11.60;99.90
8662;DHT22;29684;47.722;9.388;2022-10-31T16:13:34;11.60;99.90
8662;DHT22;29684;47.722;9.388;2022-10-31T16:16:20;11.70;99.90
8662;DHT22;29684;47.722;9.388;2022-10-31T16:19:11;11.70;99.90
8662;DHT22;29684;47.722;9.388;2022-10-31T16:22:11;11.70;99.90
8662;DHT22;29684;47.722;9.388;2022-10-31T16:27:50;11.50;99.90
8662;DHT22;29684;47.722;9.388;2022-10-31T16:30:42;11.50;99.90
8662;DHT22;29684;47.722;9.388;2022-10-31T16:33:28;11.40;99.90
8662;DHT22;29684;47.722;9.388;2022-10-31T16:36:32;11.30;99.90
8662;DHT22;29684;47.722;9.388;2022-10-31T16:39:16;11.20;99.90
8662;DHT22;29684;47.722;9.388;2022-10-31T16:42:01;11.20;99.90
8662;DHT22;29684;47.722;9.388;2022-10-31T16:44:46;11.10;99.90
8662;DHT22;29684;47.722;9.388;2022-10-31T16:47:31;11.10;99.90
8662;DHT22;29684;47.722;9.388;2022-10-31T16:50:22;11.00;99.90
8662;DHT22;29684;47.722;9.388;2022-10-31T16:53:06;10.90;99.90
8662;DHT22;29684;47.722;9.388;2022-10-31T16:55:54;10.90;99.90
8662;DHT22;29684;47.722;9.388;2022-10-31T16:58:40;10.80;99.90
8662;DHT22;29684;47.722;9.388;2022-10-31T17:01:24;10.80;99.90
8662;DHT22;29684;47.722;9.388;2022-10-31T17:04:11;10.90;99.90
8662;DHT22;29684;47.722;9.388;2022-10-31T17:06:57;11.10;99.90
8662;DHT22;29684;47.722;9.388;2022-10-31T17:09:41;11.00;99.90
8662;DHT22;29684;47.722;9.388;2022-10-31T17:12:26;10.90;99.90
8662;DHT22;29684;47.722;9.388;2022-10-31T17:15:23;11.00;99.90
8662;DHT22;29684;47.722;9.388;2022-10-31T17:18:12;11.30;99.90
8662;DHT22;29684;47.722;9.388;2022-10-31T17:20:58;11.00;99.90
8662;DHT22;29684;47.722;9.388;2022-10-31T17:23:43;10.80;99.90
8662;DHT22;29684;47.722;9.388;2022-10-31T17:26:27;10.70;99.90
8662;DHT22;29684;47.722;9.388;2022-10-31T17:29:11;10.60;99.90
8662;DHT22;29684;47.722;9.388;2022-10-31T17:31:55;10.60;99.90
8662;DHT22;29684;47.722;9.388;2022-10-31T17:34:39;10.70;99.90
8662;DHT22;29684;47.722;9.388;2022-10-31T17:37:23;10.60;99.90
8662;DHT22;29684;47.722;9.388;2022-10-31T17:40:09;10.60;99.90
8662;DHT22;29684;47.722;9.388;2022-10-31T17:42:55;10.70;99.90
8662;DHT22;29684;47.722;9.388;2022-10-31T17:45:40;10.70;99.90
8662;DHT22;29684;47.722;9.388;2022-10-31T17:48:24;10.50;99.90
8662;DHT22;29684;47.722;9.388;2022-10-31T17:51:09;10.40;99.90
8662;DHT22;29684;47.722;9.388;2022-10-31T17:53:53;10.40;99.90
8662;DHT22;29684;47.722;9.388;2022-10-31T17:56:37;10.40;99.90
8662;DHT22;29684;47.722;9.388;2022-10-31T17:59:21;10.40;99.90
8662;DHT22;29684;47.722;9.388;2022-10-31T18:02:05;10.30;99.90
8662;DHT22;29684;47.722;9.388;2022-10-31T18:04:52;10.20;99.90
8662;DHT22;29684;47.722;9.388;2022-10-31T18:07:35;10.20;99.90
8662;DHT22;29684;47.722;9.388;2022-10-31T18:10:20;10.30;99.90
8662;DHT22;29684;47.722;9.388;2022-10-31T18:13:04;10.20;99.90
8662;DHT22;29684;47.722;9.388;2022-10-31T18:15:48;10.20;99.90
8662;DHT22;29684;47.722;9.388;2022-10-31T18:18:32;10.20;99.90
8662;DHT22;29684;47.722;9.388;2022-10-31T18:21:16;10.30;99.90
8662;DHT22;29684;47.722;9.388;2022-10-31T18:24:00;10.20;99.90
8662;DHT22;29684;47.722;9.388;2022-10-31T18:26:45;10.00;99.90
8662;DHT22;29684;47.722;9.388;2022-10-31T18:29:29;9.90;99.90
8662;DHT22;29684;47.722;9.388;2022-10-31T18:32:13;9.90;99.90
8662;DHT22;29684;47.722;9.388;2022-10-31T18:34:57;9.90;99.90
8662;DHT22;29684;47.722;9.388;2022-10-31T18:37:41;9.80;99.90
8662;DHT22;29684;47.722;9.388;2022-10-31T18:40:25;9.80;99.90
8662;DHT22;29684;47.722;9.388;2022-10-31T18:43:09;9.60;99.90
8662;DHT22;29684;47.722;9.388;2022-10-31T18:45:54;9.40;99.90
8662;DHT22;29684;47.722;9.388;2022-10-31T18:48:43;9.40;99.90
8662;DHT22;29684;47.722;9.388;2022-10-31T18:51:27;9.20;99.90
8662;DHT22;29684;47.722;9.388;2022-10-31T18:54:11;9.10;99.90
8662;DHT22;29684;47.722;9.388;2022-10-31T18:56:56;8.90;99.90
8662;DHT22;29684;47.722;9.388;2022-10-31T18:59:40;8.80;99.90
8662;DHT22;29684;47.722;9.388;2022-10-31T19:02:24;8.70;99.90
8662;DHT22;29684;47.722;9.388;2022-10-31T19:05:08;8.70;99.90
8662;DHT22;29684;47.722;9.388;2022-10-31T19:07:52;8.70;99.90
8662;DHT22;29684;47.722;9.388;2022-10-31T19:10:39;8.60;99.90
8662;DHT22;29684;47.722;9.388;2022-10-31T19:13:23;8.50;99.90
8662;DHT22;29684;47.722;9.388;2022-10-31T19:16:13;8.50;99.90
8662;DHT22;29684;47.722;9.388;2022-10-31T19:18:58;8.60;99.90
8662;DHT22;29684;47.722;9.388;2022-10-31T19:21:43;8.50;99.90
8662;DHT22;29684;47.722;9.388;2022-10-31T19:24:27;8.40;99.90
8662;DHT22;29684;47.722;9.388;2022-10-31T19:27:11;8.30;99.90
8662;DHT22;29684;47.722;9.388;2022-10-31T19:29:55;8.30;99.90
8662;DHT22;29684;47.722;9.388;2022-10-31T19:32:40;8.20;99.90
8662;DHT22;29684;47.722;9.388;2022-10-31T19:35:24;8.20;99.90
8662;DHT22;29684;47.722;9.388;2022-10-31T19:38:08;8.10;99.90
8662;DHT22;29684;47.722;9.388;2022-10-31T19:43:58;8.20;99.90
8662;DHT22;29684;47.722;9.388;2022-10-31T19:46:43;8.30;99.90
8662;DHT22;29684;47.722;9.388;2022-10-31T19:49:27;8.50;99.90
8662;DHT22;29684;47.722;9.388;2022-10-31T19:52:11;8.70;99.90
8662;DHT22;29684;47.722;9.388;2022-10-31T19:54:55;8.80;99.90
8662;DHT22;29684;47.722;9.388;2022-10-31T19:57:40;8.80;99.90
8662;DHT22;29684;47.722;9.388;2022-10-31T20:00:24;8.90;99.90
8662;DHT22;29684;47.722;9.388;2022-10-31T20:03:08;9.00;99.90
8662;DHT22;29684;47.722;9.388;2022-10-31T20:05:53;9.10;99.90
8662;DHT22;29684;47.722;9.388;2022-10-31T20:08:37;9.20;99.90
8662;DHT22;29684;47.722;9.388;2022-10-31T20:11:22;9.30;99.90
8662;DHT22;29684;47.722;9.388;2022-10-31T20:14:07;9.30;99.90
8662;DHT22;29684;47.722;9.388;2022-10-31T20:16:53;9.40;99.90
8662;DHT22;29684;47.722;9.388;2022-10-31T20:19:37;9.50;99.90